M/V Grande Caribe — WCX4495 — position and weather

sailwx.info

Track history (hours):
 
Tides and Currents Weather Stations Pressure Air Temp Water Temp Dewpoint Dewpoint Depression Visibility Wind Speed Wind Dir Waves Ship Positions

M/V Grande Caribe

Owner: AMERICAN CANADIAN CARIBBEAN LINE INC, WARREN, RI. More information available from US FCC via Universal Licensing System and Coast Guard Vessel Documentation Center.

Last reported at 2014-Oct-31 21:28 UTC. Time now 2014-Dec-19 10:09 UTC.
Position N 41°43' W 071°17'.
Warning: this ship's position is 48 days out of date.

Length 55 m; draft 2.1 m.

Type: Ship. MMSI: 369023000.

Date/timePositionNaut miles runAvg speedWind from/ knotsBaromVisibWave heightAir tempDewpointWater temp
2014-Oct-31 21:28N 41°43' W 071°17'0 0.0
2014-Oct-31 20:30N 41°43' W 071°17'0 0.0
2014-Oct-31 19:31N 41°43' W 071°17'0 0.0
2014-Oct-31 18:33N 41°43' W 071°17'0 0.0
2014-Oct-31 17:28N 41°43' W 071°17'0 0.0
2014-Oct-31 16:33N 41°43' W 071°17'0 0.0
2014-Oct-31 15:32N 41°43' W 071°17'0 0.3
2014-Oct-31 14:33N 41°43' W 071°17'8 7.8
2014-Oct-31 13:28N 41°35' W 071°19'4 3.9
2014-Oct-31 12:23N 41°31' W 071°21'4 5.2
2014-Oct-31 11:33N 41°27' W 071°23'6 6.3
2014-Oct-31 10:33N 41°21' W 071°25'7 7.0
2014-Oct-31 09:33N 41°18' W 071°33'7 7.3
2014-Oct-31 08:33N 41°16' W 071°43'8 7.9
2014-Oct-31 07:33N 41°15' W 071°53'8 7.9
2014-Oct-31 06:33N 41°14' W 072°04'7 6.7
2014-Oct-31 05:33N 41°13' W 072°12'7 7.0
2014-Oct-31 04:33N 41°11' W 072°21'7 7.4
2014-Oct-31 03:33N 41°09' W 072°31'7 7.3
2014-Oct-31 02:33N 41°07' W 072°40'7 7.4
2014-Oct-31 01:33N 41°06' W 072°50'22 7.5
2014-Oct-30 22:33N 41°01' W 073°19'9 7.5
2014-Oct-30 21:21N 40°58' W 073°30'20 7.1
2014-Oct-30 18:32N 40°48' W 073°53'8 8.3
2014-Oct-30 17:33N 40°43' W 074°01'2 2.1
2014-Oct-30 16:33N 40°45' W 074°01'0 0.0
2014-Oct-30 15:33N 40°45' W 074°01'0 0.0
2014-Oct-30 14:33N 40°45' W 074°01'0 0.0
2014-Oct-30 13:33N 40°45' W 074°01'0 0.0
2014-Oct-30 12:33N 40°45' W 074°01'0 0.0
2014-Oct-30 11:33N 40°45' W 074°01'0 0.0
2014-Oct-30 10:33N 40°45' W 074°01'0 0.0
2014-Oct-30 09:33N 40°45' W 074°01'0 0.0
2014-Oct-30 08:33N 40°45' W 074°01'0 0.0
2014-Oct-30 07:33N 40°45' W 074°01'0 0.0
2014-Oct-30 06:33N 40°45' W 074°01'0 0.0
2014-Oct-30 05:33N 40°45' W 074°01'0 0.0
2014-Oct-30 04:33N 40°45' W 074°01'0 0.0
2014-Oct-30 03:33N 40°45' W 074°01'0 0.0
2014-Oct-30 02:33N 40°45' W 074°01'0 0.0
2014-Oct-30 01:33N 40°45' W 074°01'0 0.0
2014-Oct-30 00:33N 40°45' W 074°01'0 0.0
2014-Oct-29 23:33N 40°45' W 074°01'0 0.0
2014-Oct-29 22:33N 40°45' W 074°01'0 0.0
2014-Oct-29 21:33N 40°45' W 074°01'0 0.0
2014-Oct-29 20:33N 40°45' W 074°01'0 0.0
2014-Oct-29 19:33N 40°45' W 074°01'0 0.0
2014-Oct-29 18:33N 40°45' W 074°01'0 0.0
2014-Oct-29 17:33N 40°45' W 074°01'0 0.0
2014-Oct-29 16:33N 40°45' W 074°01'0 0.0
2014-Oct-29 15:33N 40°45' W 074°01'0 0.0
2014-Oct-29 14:33N 40°45' W 074°01'0 0.0
2014-Oct-29 13:33N 40°45' W 074°01'0 0.0
2014-Oct-29 12:33N 40°45' W 074°01'0 0.0
2014-Oct-29 11:33N 40°45' W 074°01'0 0.0
2014-Oct-29 10:33N 40°45' W 074°01'0 0.0
2014-Oct-29 09:33N 40°45' W 074°01'0 0.0
2014-Oct-29 08:33N 40°45' W 074°01'0 0.0
2014-Oct-29 07:33N 40°45' W 074°01'0 0.0
2014-Oct-29 06:33N 40°45' W 074°01'0 0.0
2014-Oct-29 05:33N 40°45' W 074°01'0 0.0
2014-Oct-29 04:34N 40°45' W 074°01'0 0.0
2014-Oct-29 03:33N 40°45' W 074°01'0 0.0
2014-Oct-29 02:33N 40°45' W 074°01'0 0.0
2014-Oct-29 01:33N 40°45' W 074°01'0 0.0
2014-Oct-29 00:33N 40°45' W 074°01'0 0.0
2014-Oct-28 23:33N 40°45' W 074°01'0 0.0
2014-Oct-28 22:33N 40°45' W 074°01'0 0.0
2014-Oct-28 21:33N 40°45' W 074°01'3 2.7
2014-Oct-28 20:33N 40°42' W 074°02'  
2014-Oct-23 18:33N 44°06' W 076°23'10 9.2
2014-Oct-23 17:29N 44°13' W 076°12'  
Track history (hours):
 
Tides and Currents Weather Stations Pressure Air Temp Water Temp Dewpoint Dewpoint Depression Visibility Wind Speed Wind Dir Waves Ship Positions

M/V Grande Caribe

Owner: AMERICAN CANADIAN CARIBBEAN LINE INC, WARREN, RI. More information available from US FCC via Universal Licensing System and Coast Guard Vessel Documentation Center.

Last reported at 2014-Oct-31 21:28 UTC. Time now 2014-Dec-19 10:09 UTC.
Position N 41°43' W 071°17'.
Warning: this ship's position is 48 days out of date.

Length 55 m; draft 2.1 m.

Type: Ship. MMSI: 369023000.

Date/timePositionNaut miles runAvg speedWind from/ knotsBaromVisibWave heightAir tempDewpointWater temp
2014-Oct-31 21:28N 41°43' W 071°17'0 0.0
2014-Oct-31 20:30N 41°43' W 071°17'0 0.0
2014-Oct-31 19:31N 41°43' W 071°17'0 0.0
2014-Oct-31 18:33N 41°43' W 071°17'0 0.0
2014-Oct-31 17:28N 41°43' W 071°17'0 0.0
2014-Oct-31 16:33N 41°43' W 071°17'0 0.0
2014-Oct-31 15:32N 41°43' W 071°17'0 0.3
2014-Oct-31 14:33N 41°43' W 071°17'8 7.8
2014-Oct-31 13:28N 41°35' W 071°19'4 3.9
2014-Oct-31 12:23N 41°31' W 071°21'4 5.2
2014-Oct-31 11:33N 41°27' W 071°23'6 6.3
2014-Oct-31 10:33N 41°21' W 071°25'7 7.0
2014-Oct-31 09:33N 41°18' W 071°33'7 7.3
2014-Oct-31 08:33N 41°16' W 071°43'8 7.9
2014-Oct-31 07:33N 41°15' W 071°53'8 7.9
2014-Oct-31 06:33N 41°14' W 072°04'7 6.7
2014-Oct-31 05:33N 41°13' W 072°12'7 7.0
2014-Oct-31 04:33N 41°11' W 072°21'7 7.4
2014-Oct-31 03:33N 41°09' W 072°31'7 7.3
2014-Oct-31 02:33N 41°07' W 072°40'7 7.4
2014-Oct-31 01:33N 41°06' W 072°50'22 7.5
2014-Oct-30 22:33N 41°01' W 073°19'9 7.5
2014-Oct-30 21:21N 40°58' W 073°30'20 7.1
2014-Oct-30 18:32N 40°48' W 073°53'8 8.3
2014-Oct-30 17:33N 40°43' W 074°01'2 2.1
2014-Oct-30 16:33N 40°45' W 074°01'0 0.0
2014-Oct-30 15:33N 40°45' W 074°01'0 0.0
2014-Oct-30 14:33N 40°45' W 074°01'0 0.0
2014-Oct-30 13:33N 40°45' W 074°01'0 0.0
2014-Oct-30 12:33N 40°45' W 074°01'0 0.0
2014-Oct-30 11:33N 40°45' W 074°01'0 0.0
2014-Oct-30 10:33N 40°45' W 074°01'0 0.0
2014-Oct-30 09:33N 40°45' W 074°01'0 0.0
2014-Oct-30 08:33N 40°45' W 074°01'0 0.0
2014-Oct-30 07:33N 40°45' W 074°01'0 0.0
2014-Oct-30 06:33N 40°45' W 074°01'0 0.0
2014-Oct-30 05:33N 40°45' W 074°01'0 0.0
2014-Oct-30 04:33N 40°45' W 074°01'0 0.0
2014-Oct-30 03:33N 40°45' W 074°01'0 0.0
2014-Oct-30 02:33N 40°45' W 074°01'0 0.0
2014-Oct-30 01:33N 40°45' W 074°01'0 0.0
2014-Oct-30 00:33N 40°45' W 074°01'0 0.0
2014-Oct-29 23:33N 40°45' W 074°01'0 0.0
2014-Oct-29 22:33N 40°45' W 074°01'0 0.0
2014-Oct-29 21:33N 40°45' W 074°01'0 0.0
2014-Oct-29 20:33N 40°45' W 074°01'0 0.0
2014-Oct-29 19:33N 40°45' W 074°01'0 0.0
2014-Oct-29 18:33N 40°45' W 074°01'0 0.0
2014-Oct-29 17:33N 40°45' W 074°01'0 0.0
2014-Oct-29 16:33N 40°45' W 074°01'0 0.0
2014-Oct-29 15:33N 40°45' W 074°01'0 0.0
2014-Oct-29 14:33N 40°45' W 074°01'0 0.0
2014-Oct-29 13:33N 40°45' W 074°01'0 0.0
2014-Oct-29 12:33N 40°45' W 074°01'0 0.0
2014-Oct-29 11:33N 40°45' W 074°01'0 0.0
2014-Oct-29 10:33N 40°45' W 074°01'0 0.0
2014-Oct-29 09:33N 40°45' W 074°01'0 0.0
2014-Oct-29 08:33N 40°45' W 074°01'0 0.0
2014-Oct-29 07:33N 40°45' W 074°01'0 0.0
2014-Oct-29 06:33N 40°45' W 074°01'0 0.0
2014-Oct-29 05:33N 40°45' W 074°01'0 0.0
2014-Oct-29 04:34N 40°45' W 074°01'0 0.0
2014-Oct-29 03:33N 40°45' W 074°01'0 0.0
2014-Oct-29 02:33N 40°45' W 074°01'0 0.0
2014-Oct-29 01:33N 40°45' W 074°01'0 0.0
2014-Oct-29 00:33N 40°45' W 074°01'0 0.0
2014-Oct-28 23:33N 40°45' W 074°01'0 0.0
2014-Oct-28 22:33N 40°45' W 074°01'0 0.0
2014-Oct-28 21:33N 40°45' W 074°01'3 2.7
2014-Oct-28 20:33N 40°42' W 074°02'  
2014-Oct-23 18:33N 44°06' W 076°23'10 9.2
2014-Oct-23 17:29N 44°13' W 076°12'  

Dump ship's entire track history